Impacts TAF Board
For situational awareness. Not to be used for flight planning purposes.
IDs:

KLAX - Los Angeles Intl, CA, US

Issued at 1732 UTC 20 Sep 2018
Updated at 1958 UTC 20 Sep 2018
Potential Impact None Slight Moderate High
Time<<21/08Z 21/09Z 21/10Z 21/11Z 21/12Z 21/13Z 21/14Z 21/15Z 21/16Z 21/17Z 21/18Z 21/19Z 21/20Z>>
Type PRVL PRVL PRVL PRVL PRVL PRVL PRVL PRVL PRVL PRVL PRVL PRVL PRVL
VIS >6 >6 >6 >6 >6 >6 >6 >6 >6 >6 >6 >6 >6
CIG 10 10 10 10 10 10 10 10 10 -- -- -- --
Cover OVC OVC OVC OVC OVC OVC OVC OVC OVC SCT SCT SCT SKC
FltCat MVFR MVFR MVFR MVFR MVFR MVFR MVFR MVFR MVFR VFR VFR VFR VFR
WX -- -- -- -- -- -- -- -- -- -- -- -- --
WDir VRB VRB VRB VRB VRB VRB VRB VRB VRB 240 240 240 260
WSpd 3 3 3 3 3 3 3 3 3 6 6 6 12
WGst -- -- -- -- -- -- -- -- -- -- -- -- --
Raw TAF
KLAX 201732Z 2018/2124 VRB05KT P6SM SCT009 SCT012
  FM201900 26010KT P6SM SKC
  FM210400 VRB03KT P6SM SKC
  FM210800 VRB03KT P6SM OVC010
  FM211700 24006KT P6SM SCT015
  FM212000 26012KT P6SM SKC


METAR Board
Radar Display
Forecast Discussion
For situational awareness. Not to be used for flight planning purposes.